MSC Krittika — H3RV — position and weather

sailwx.info

Track history (hours):
 
Tides and Currents Weather Stations Pressure Air Temp Water Temp Dewpoint Dewpoint Depression Visibility Wind Speed Wind Dir Waves Ship Positions

MSC Krittika

Last reported at 2015-Jan-10 07:07 UTC. Time now 2015-Jan-26 06:20 UTC.
Position S 34°10' E 151°32'.
Warning: this ship's position is 15 days out of date.

Length 202 m; draft 8.9 m.

Type: Ship (hazmat cat A). MMSI: 354725000.

Date/timePositionNaut miles runAvg speedWind from/ knotsBaromVisibWave heightAir tempDewpointWater temp
2015-Jan-10 07:07S 34°10' E 151°32'19013.0
2015-Jan-09 16:27S 37°10' E 150°16'1415.3
2015-Jan-09 15:33S 37°23' E 150°11'3115.5
2015-Jan-09 13:33S 37°49' E 149°50'1716.7
2015-Jan-09 12:33S 37°60' E 149°34'3616.0
2015-Jan-09 10:20S 38°21' E 148°57'4616.5
2015-Jan-09 07:33S 38°48' E 148°10'1817.0
2015-Jan-09 06:31S 38°54' E 147°49'3316.4
2015-Jan-09 04:30S 39°06' E 147°09'1515.8
2015-Jan-09 03:34S 39°12' E 146°51'1615.9
2015-Jan-09 02:33S 39°17' E 146°32'1615.7
2015-Jan-09 01:34S 39°16' E 146°12'1616.1
2015-Jan-09 00:34S 39°08' E 145°53'69 1.4
2015-Jan-06 22:33S 38°17' E 144°55'1311.9
2015-Jan-06 21:30S 38°17' E 144°39'1111.2
2015-Jan-06 20:32S 38°26' E 144°30'6 6.4
2015-Jan-06 19:33S 38°32' E 144°28'1 0.6
2015-Jan-06 17:33S 38°32' E 144°29'1 0.5
2015-Jan-06 16:33S 38°33' E 144°28'1413.8
2015-Jan-06 15:32S 38°39' E 144°13'1616.4
2015-Jan-06 14:33S 38°48' E 143°55'1616.2
2015-Jan-06 13:33S 38°54' E 143°36'1616.3
2015-Jan-06 12:33S 38°55' E 143°15'1615.5
2015-Jan-06 11:33S 38°54' E 142°55'1515.5
2015-Jan-06 10:33S 38°51' E 142°36'1515.2
2015-Jan-06 09:32S 38°46' E 142°17'1515.1
2015-Jan-06 08:33S 38°42' E 141°59'1615.4
2015-Jan-06 07:33S 38°37' E 141°40'1515.5
2015-Jan-06 06:33S 38°33' E 141°21'7614.8
2015-Jan-06 01:25S 37°48' E 140°02'19614.1
2015-Jan-05 11:32S 34°51' E 138°19'10 9.6
2015-Jan-05 10:32S 34°46' E 138°29'0 0.0
2015-Jan-05 09:12S 34°46' E 138°29'0 0.0
2015-Jan-05 08:18S 34°46' E 138°29'0 0.0
2015-Jan-05 07:27S 34°46' E 138°29'0 0.0
2015-Jan-05 05:09S 34°46' E 138°29'0 0.0
2015-Jan-05 03:33S 34°46' E 138°29'0 0.0
2015-Jan-05 01:27S 34°46' E 138°29'7 8.2
2015-Jan-05 00:33S 34°49' E 138°21'12 8.4
2015-Jan-04 23:09S 34°58' E 138°12'1 0.6
2015-Jan-04 22:18S 34°58' E 138°13'0 0.3
2015-Jan-04 21:22S 34°58' E 138°13'4 5.3
2015-Jan-04 20:34S 35°01' E 138°09'  
Track history (hours):
 
Tides and Currents Weather Stations Pressure Air Temp Water Temp Dewpoint Dewpoint Depression Visibility Wind Speed Wind Dir Waves Ship Positions

MSC Krittika

Last reported at 2015-Jan-10 07:07 UTC. Time now 2015-Jan-26 06:20 UTC.
Position S 34°10' E 151°32'.
Warning: this ship's position is 15 days out of date.

Length 202 m; draft 8.9 m.

Type: Ship (hazmat cat A). MMSI: 354725000.

Date/timePositionNaut miles runAvg speedWind from/ knotsBaromVisibWave heightAir tempDewpointWater temp
2015-Jan-10 07:07S 34°10' E 151°32'19013.0
2015-Jan-09 16:27S 37°10' E 150°16'1415.3
2015-Jan-09 15:33S 37°23' E 150°11'3115.5
2015-Jan-09 13:33S 37°49' E 149°50'1716.7
2015-Jan-09 12:33S 37°60' E 149°34'3616.0
2015-Jan-09 10:20S 38°21' E 148°57'4616.5
2015-Jan-09 07:33S 38°48' E 148°10'1817.0
2015-Jan-09 06:31S 38°54' E 147°49'3316.4
2015-Jan-09 04:30S 39°06' E 147°09'1515.8
2015-Jan-09 03:34S 39°12' E 146°51'1615.9
2015-Jan-09 02:33S 39°17' E 146°32'1615.7
2015-Jan-09 01:34S 39°16' E 146°12'1616.1
2015-Jan-09 00:34S 39°08' E 145°53'69 1.4
2015-Jan-06 22:33S 38°17' E 144°55'1311.9
2015-Jan-06 21:30S 38°17' E 144°39'1111.2
2015-Jan-06 20:32S 38°26' E 144°30'6 6.4
2015-Jan-06 19:33S 38°32' E 144°28'1 0.6
2015-Jan-06 17:33S 38°32' E 144°29'1 0.5
2015-Jan-06 16:33S 38°33' E 144°28'1413.8
2015-Jan-06 15:32S 38°39' E 144°13'1616.4
2015-Jan-06 14:33S 38°48' E 143°55'1616.2
2015-Jan-06 13:33S 38°54' E 143°36'1616.3
2015-Jan-06 12:33S 38°55' E 143°15'1615.5
2015-Jan-06 11:33S 38°54' E 142°55'1515.5
2015-Jan-06 10:33S 38°51' E 142°36'1515.2
2015-Jan-06 09:32S 38°46' E 142°17'1515.1
2015-Jan-06 08:33S 38°42' E 141°59'1615.4
2015-Jan-06 07:33S 38°37' E 141°40'1515.5
2015-Jan-06 06:33S 38°33' E 141°21'7614.8
2015-Jan-06 01:25S 37°48' E 140°02'19614.1
2015-Jan-05 11:32S 34°51' E 138°19'10 9.6
2015-Jan-05 10:32S 34°46' E 138°29'0 0.0
2015-Jan-05 09:12S 34°46' E 138°29'0 0.0
2015-Jan-05 08:18S 34°46' E 138°29'0 0.0
2015-Jan-05 07:27S 34°46' E 138°29'0 0.0
2015-Jan-05 05:09S 34°46' E 138°29'0 0.0
2015-Jan-05 03:33S 34°46' E 138°29'0 0.0
2015-Jan-05 01:27S 34°46' E 138°29'7 8.2
2015-Jan-05 00:33S 34°49' E 138°21'12 8.4
2015-Jan-04 23:09S 34°58' E 138°12'1 0.6
2015-Jan-04 22:18S 34°58' E 138°13'0 0.3
2015-Jan-04 21:22S 34°58' E 138°13'4 5.3
2015-Jan-04 20:34S 35°01' E 138°09'  

Dump ship's entire track history